GMTA/AHU METAR and TAF weather

Enter ICAO airport designator
Station Type Date Time Source
GMTA METAR 2019/10/15 08:00 UTC NOAA

GMTA 150800Z 22002KT 9999 SCT020 SCT030 18/14 Q1021 NOSIG


Station Type Date Time Source
GMTA Decoded METAR 2019/10/15 08:00 UTC NOAA

Al Hoceima, Morocco (GMTA) 35-11N 003-51W 14M
Oct 15, 2019 - 04:00 AM EDT / 2019.10.15 0800 UTC
Wind: from the SW (220 degrees) at 2 MPH (2 KT):0
Visibility: greater than 7 mile(s):0
Sky conditions: partly cloudy
Temperature: 64 F (18 C)
Dew Point: 57 F (14 C)
Relative Humidity: 77%
Pressure (altimeter): 30.15 in. Hg (1021 hPa)
ob: GMTA 150800Z 22002KT 9999 SCT020 SCT030 18/14 Q1021 NOSIG
cycle: 8

Station Type Date Time Source
GMTA TAF 2019/10/15 06:27 UTC NOAA

TAF TAF GMTA 150500Z 1506/1612 23004KT 8000 SCT020

Example: see airport list